Northern Power — A8TL6 — position and weather

sailwx.info

Track history (hours):
 
Tides and Currents Weather Stations Pressure Air Temp Water Temp Dewpoint Dewpoint Depression Visibility Wind Speed Wind Dir Waves Ship Positions

Northern Power

Last reported at 2016-Apr-26 05:33 UTC. Time now 2016-Apr-30 05:18 UTC.
Position N 01°54' E 102°21'.

Length 264 m; draft 11.7 m.

Type: Cargo ship. MMSI: 636091835.

Date/timePositionNaut miles runAvg speedWind from/ knotsBaromVisibWave heightAir tempDewpointWater temp
2016-Apr-26 05:33N 01°54' E 102°21'1917.6
2016-Apr-26 04:29N 01°46' E 102°39'1717.0
2016-Apr-26 03:30N 01°38' E 102°53'5317.7
2016-Apr-26 00:30N 01°11' E 103°39'1313.4
2016-Apr-25 23:34N 01°12' E 103°52'4 3.7
2016-Apr-25 22:31N 01°16' E 103°51'0 0.0
2016-Apr-25 21:28N 01°16' E 103°51'0 0.0
2016-Apr-25 20:31N 01°16' E 103°51'0 0.0
2016-Apr-25 19:31N 01°16' E 103°51'0 0.0
2016-Apr-25 18:31N 01°16' E 103°51'0 0.0
2016-Apr-25 17:31N 01°16' E 103°51'0 0.0
2016-Apr-25 16:31N 01°16' E 103°51'0 0.0
2016-Apr-25 15:28N 01°16' E 103°51'0 0.0
2016-Apr-25 14:31N 01°16' E 103°51'0 0.0
2016-Apr-25 13:31N 01°16' E 103°51'0 0.0
2016-Apr-25 12:31N 01°16' E 103°51'0 0.0
2016-Apr-25 11:31N 01°16' E 103°51'0 0.0
2016-Apr-25 10:31N 01°16' E 103°51'0 0.0
2016-Apr-25 09:31N 01°16' E 103°51'0 0.0
2016-Apr-25 08:31N 01°16' E 103°51'0 0.0
2016-Apr-25 07:31N 01°16' E 103°51'0 0.0
2016-Apr-25 06:28N 01°16' E 103°51'0 0.0
2016-Apr-25 05:31N 01°16' E 103°51'0 0.0
2016-Apr-25 04:31N 01°16' E 103°51'0 0.0
2016-Apr-25 03:31N 01°16' E 103°51'0 0.0
2016-Apr-25 02:25N 01°16' E 103°51'0 0.0
2016-Apr-25 01:33N 01°16' E 103°51'0 0.4
2016-Apr-25 00:33N 01°16' E 103°51'4 4.1
2016-Apr-24 23:33N 01°12' E 103°53'8 8.6
2016-Apr-24 22:33N 01°08' E 103°46'10 9.6
2016-Apr-24 21:33N 01°04' E 103°37'11 9.9
2016-Apr-24 20:29N 01°10' E 103°28'7014.2
2016-Apr-24 15:32N 01°47' E 102°28'1515.3
2016-Apr-24 14:33N 01°54' E 102°14'  
Track history (hours):
 
Tides and Currents Weather Stations Pressure Air Temp Water Temp Dewpoint Dewpoint Depression Visibility Wind Speed Wind Dir Waves Ship Positions

Northern Power

Last reported at 2016-Apr-26 05:33 UTC. Time now 2016-Apr-30 05:18 UTC.
Position N 01°54' E 102°21'.

Length 264 m; draft 11.7 m.

Type: Cargo ship. MMSI: 636091835.

Date/timePositionNaut miles runAvg speedWind from/ knotsBaromVisibWave heightAir tempDewpointWater temp
2016-Apr-26 05:33N 01°54' E 102°21'1917.6
2016-Apr-26 04:29N 01°46' E 102°39'1717.0
2016-Apr-26 03:30N 01°38' E 102°53'5317.7
2016-Apr-26 00:30N 01°11' E 103°39'1313.4
2016-Apr-25 23:34N 01°12' E 103°52'4 3.7
2016-Apr-25 22:31N 01°16' E 103°51'0 0.0
2016-Apr-25 21:28N 01°16' E 103°51'0 0.0
2016-Apr-25 20:31N 01°16' E 103°51'0 0.0
2016-Apr-25 19:31N 01°16' E 103°51'0 0.0
2016-Apr-25 18:31N 01°16' E 103°51'0 0.0
2016-Apr-25 17:31N 01°16' E 103°51'0 0.0
2016-Apr-25 16:31N 01°16' E 103°51'0 0.0
2016-Apr-25 15:28N 01°16' E 103°51'0 0.0
2016-Apr-25 14:31N 01°16' E 103°51'0 0.0
2016-Apr-25 13:31N 01°16' E 103°51'0 0.0
2016-Apr-25 12:31N 01°16' E 103°51'0 0.0
2016-Apr-25 11:31N 01°16' E 103°51'0 0.0
2016-Apr-25 10:31N 01°16' E 103°51'0 0.0
2016-Apr-25 09:31N 01°16' E 103°51'0 0.0
2016-Apr-25 08:31N 01°16' E 103°51'0 0.0
2016-Apr-25 07:31N 01°16' E 103°51'0 0.0
2016-Apr-25 06:28N 01°16' E 103°51'0 0.0
2016-Apr-25 05:31N 01°16' E 103°51'0 0.0
2016-Apr-25 04:31N 01°16' E 103°51'0 0.0
2016-Apr-25 03:31N 01°16' E 103°51'0 0.0
2016-Apr-25 02:25N 01°16' E 103°51'0 0.0
2016-Apr-25 01:33N 01°16' E 103°51'0 0.4
2016-Apr-25 00:33N 01°16' E 103°51'4 4.1
2016-Apr-24 23:33N 01°12' E 103°53'8 8.6
2016-Apr-24 22:33N 01°08' E 103°46'10 9.6
2016-Apr-24 21:33N 01°04' E 103°37'11 9.9
2016-Apr-24 20:29N 01°10' E 103°28'7014.2
2016-Apr-24 15:32N 01°47' E 102°28'1515.3
2016-Apr-24 14:33N 01°54' E 102°14'  

Dump ship's entire track history